Time;durP1;ratioP1;P1;durP2;ratioP2;P2;SDS_P1;SDS_P2;PMS_P1;PMS_P2;Temp;Humidity;BMP_temperature;BMP_pressure;BME280_temperature;BME280_humidity;BME280_pressure;Samples;Min_cycle;Max_cycle;Signal;HPM_P1;HPM_P2
2024/04/06 00:01:16;;;;;;;11.93;2.42;;;11.60;99.90;;;;;;4925443;29;20123;-94
2024/04/06 00:03:41;;;;;;;16.85;1.80;;;11.60;99.90;;;;;;4923636;29;20063;-94
2024/04/06 00:06:07;;;;;;;11.68;2.30;;;11.50;99.90;;;;;;4923692;29;20700;-94
2024/04/06 00:08:33;;;;;;;15.07;2.92;;;11.50;99.90;;;;;;4923968;29;20111;-94
2024/04/06 00:10:59;;;;;;;17.00;2.33;;;11.50;99.90;;;;;;4923826;29;20035;-94
2024/04/06 00:13:25;;;;;;;20.90;2.80;;;11.50;99.90;;;;;;4923194;29;20030;-94
2024/04/06 00:15:51;;;;;;;14.18;2.63;;;11.50;99.90;;;;;;4925239;29;20046;-94
2024/04/06 00:18:16;;;;;;;20.13;2.25;;;11.50;99.90;;;;;;4931100;29;20032;-95
2024/04/06 00:20:42;;;;;;;11.95;2.15;;;11.50;99.90;;;;;;4922342;29;20024;-94
2024/04/06 00:23:08;;;;;;;12.90;2.60;;;11.50;99.90;;;;;;4921910;29;20027;-94
2024/04/06 00:25:34;;;;;;;12.85;2.08;;;11.50;99.90;;;;;;4922096;29;20137;-94
2024/04/06 00:27:59;;;;;;;22.05;2.65;;;11.50;99.90;;;;;;4923100;29;20047;-94
2024/04/06 00:30:26;;;;;;;18.05;3.08;;;11.50;99.90;;;;;;4922665;29;20101;-94
2024/04/06 00:32:51;;;;;;;16.40;3.10;;;11.50;99.90;;;;;;4922640;29;20379;-94
2024/04/06 00:35:17;;;;;;;15.50;2.67;;;11.50;99.90;;;;;;4923017;29;20024;-95
2024/04/06 00:37:43;;;;;;;15.65;2.63;;;11.50;99.90;;;;;;4923201;29;20034;-96
2024/04/06 00:40:09;;;;;;;14.82;2.58;;;11.50;99.90;;;;;;4923495;29;20039;-95
2024/04/06 00:42:35;;;;;;;11.40;2.33;;;11.50;99.90;;;;;;4921936;29;20135;-96
2024/04/06 00:45:01;;;;;;;12.48;2.45;;;11.50;99.90;;;;;;4922841;29;20163;-95
2024/04/06 00:47:27;;;;;;;16.70;2.67;;;11.50;99.90;;;;;;4923232;29;20040;-94
2024/04/06 00:49:53;;;;;;;14.32;3.08;;;11.50;99.90;;;;;;4923118;29;20123;-95
2024/04/06 00:52:19;;;;;;;18.67;3.83;;;11.50;99.90;;;;;;4923328;29;20035;-95
2024/04/06 00:54:45;;;;;;;16.38;2.63;;;11.50;99.90;;;;;;4924131;29;20484;-95
2024/04/06 00:57:11;;;;;;;13.98;2.75;;;11.50;99.90;;;;;;4926798;29;20032;-95
2024/04/06 00:59:38;;;;;;;13.20;2.90;;;11.50;99.90;;;;;;4936249;29;20070;-95
2024/04/06 01:02:05;;;;;;;14.85;2.38;;;11.50;99.90;;;;;;4936296;29;20028;-95
2024/04/06 01:04:31;;;;;;;19.35;3.83;;;11.50;99.90;;;;;;4937214;29;20087;-95
2024/04/06 01:06:57;;;;;;;22.42;4.10;;;11.50;99.90;;;;;;4938840;29;20039;-95
2024/04/06 01:09:23;;;;;;;17.33;2.63;;;11.50;99.90;;;;;;4941536;29;20038;-94
2024/04/06 01:11:50;;;;;;;8.77;1.55;;;11.50;99.90;;;;;;4938062;29;20050;-94
2024/04/06 01:14:17;;;;;;;15.65;2.72;;;11.50;99.90;;;;;;4937157;29;20024;-95
2024/04/06 01:16:43;;;;;;;20.02;2.97;;;11.50;99.90;;;;;;4935543;29;20557;-94
2024/04/06 01:19:09;;;;;;;14.30;2.28;;;11.50;99.90;;;;;;4935452;29;20034;-95
2024/04/06 01:21:35;;;;;;;13.63;2.67;;;11.50;99.90;;;;;;4936416;29;20039;-94
2024/04/06 01:24:28;;;;;;;17.52;2.45;;;11.50;99.90;;;;;;4933379;29;20024;-95
2024/04/06 01:26:54;;;;;;;17.73;2.30;;;11.50;99.90;;;;;;4924800;29;20040;-95
2024/04/06 01:29:26;;;;;;;17.42;2.47;;;11.50;99.90;;;;;;4935516;29;20054;-95
2024/04/06 01:31:52;;;;;;;20.52;3.25;;;11.50;99.90;;;;;;4936324;29;20024;-95
2024/04/06 01:34:18;;;;;;;10.60;2.00;;;11.60;99.90;;;;;;4937639;29;20024;-95
2024/04/06 01:36:44;;;;;;;17.45;2.67;;;11.50;99.90;;;;;;4937292;29;20502;-95
2024/04/06 01:39:13;;;;;;;11.27;2.50;;;11.50;99.90;;;;;;4938197;29;20027;-95
2024/04/06 01:41:47;;;;;;;18.88;2.83;;;11.60;99.90;;;;;;4938535;29;20474;-94
2024/04/06 01:44:13;;;;;;;12.32;2.35;;;11.60;99.90;;;;;;4940577;29;20015;-94
2024/04/06 01:46:38;;;;;;;17.63;2.78;;;11.60;99.90;;;;;;4939719;29;20043;-94
2024/04/06 01:49:04;;;;;;;15.65;3.33;;;11.60;99.90;;;;;;4940139;29;20028;-95
2024/04/06 01:51:30;;;;;;;10.82;2.00;;;11.60;99.90;;;;;;4939658;29;20032;-95
2024/04/06 01:53:56;;;;;;;13.02;2.58;;;11.60;99.90;;;;;;4937283;29;20031;-95
2024/04/06 01:56:22;;;;;;;25.70;3.10;;;11.70;99.90;;;;;;4936063;29;20019;-94
2024/04/06 01:58:48;;;;;;;11.02;2.63;;;11.60;99.90;;;;;;4930607;29;20107;-94
2024/04/06 02:01:14;;;;;;;15.90;2.50;;;11.70;99.90;;;;;;4930822;29;20168;-94
2024/04/06 02:03:40;;;;;;;16.55;2.28;;;11.70;99.90;;;;;;4930248;29;20031;-94
2024/04/06 02:06:08;;;;;;;17.73;2.67;;;11.70;99.90;;;;;;4934078;29;20028;-94
2024/04/06 02:08:37;;;;;;;12.45;2.58;;;11.70;99.90;;;;;;4935400;29;20047;-94
2024/04/06 02:11:03;;;;;;;20.17;2.80;;;11.70;99.90;;;;;;4934519;29;20070;-95
2024/04/06 02:13:30;;;;;;;18.75;2.67;;;11.70;99.90;;;;;;4935885;29;20023;-94
2024/04/06 02:15:57;;;;;;;19.85;2.92;;;11.70;99.90;;;;;;4937739;29;20561;-94
2024/04/06 02:18:23;;;;;;;14.57;2.72;;;11.70;99.90;;;;;;4930176;29;20054;-94
2024/04/06 02:20:49;;;;;;;14.73;2.50;;;11.70;99.90;;;;;;4928291;29;20043;-94
2024/04/06 02:23:14;;;;;;;15.57;2.63;;;11.80;99.90;;;;;;4928714;29;20032;-94
2024/04/06 02:25:41;;;;;;;10.98;2.17;;;11.70;99.90;;;;;;4926231;29;20126;-94
2024/04/06 02:28:07;;;;;;;13.57;2.63;;;11.80;99.90;;;;;;4927071;29;20039;-94
2024/04/06 02:30:32;;;;;;;12.52;2.92;;;11.80;99.90;;;;;;4930110;29;20089;-94
2024/04/06 02:32:58;;;;;;;15.65;3.83;;;11.70;99.90;;;;;;4931835;29;20067;-93
2024/04/06 02:35:24;;;;;;;13.43;2.97;;;11.70;99.90;;;;;;4930810;29;20031;-94
2024/04/06 02:37:50;;;;;;;13.05;2.20;;;11.70;99.90;;;;;;4929419;29;20032;-93
2024/04/06 02:40:16;;;;;;;10.65;2.20;;;11.70;99.90;;;;;;4926687;29;20035;-94
2024/04/06 02:42:42;;;;;;;14.82;2.60;;;11.70;99.90;;;;;;4925332;29;20040;-94
2024/04/06 02:45:08;;;;;;;12.75;2.67;;;11.70;99.90;;;;;;4925291;29;20080;-94
2024/04/06 02:47:34;;;;;;;10.23;2.50;;;11.70;99.90;;;;;;4923361;29;20046;-94
2024/04/06 02:50:01;;;;;;;25.95;4.13;;;11.70;99.90;;;;;;4921717;29;20024;-95
2024/04/06 02:52:27;;;;;;;8.73;2.65;;;11.70;99.90;;;;;;4922880;29;20043;-95
2024/04/06 02:54:52;;;;;;;12.65;2.80;;;11.70;99.90;;;;;;4924288;29;20477;-94
2024/04/06 02:57:18;;;;;;;8.98;2.33;;;11.70;99.90;;;;;;4922247;29;20139;-94
2024/04/06 02:59:45;;;;;;;19.45;2.83;;;11.70;99.90;;;;;;4922047;29;20036;-94
2024/04/06 03:02:11;;;;;;;14.07;2.67;;;11.80;99.90;;;;;;4924611;29;20050;-94
2024/04/06 03:04:38;;;;;;;15.60;2.85;;;11.80;99.90;;;;;;4920878;29;20028;-94
2024/04/06 03:07:04;;;;;;;12.57;2.53;;;11.80;99.90;;;;;;4920330;29;20051;-95
2024/04/06 03:09:31;;;;;;;14.65;3.45;;;11.80;99.90;;;;;;4921273;29;20090;-94
2024/04/06 03:11:56;;;;;;;18.63;3.17;;;11.80;99.90;;;;;;4921457;29;20039;-93
2024/04/06 03:14:22;;;;;;;10.98;2.50;;;11.90;99.90;;;;;;4921878;29;20020;-94
2024/04/06 03:16:49;;;;;;;11.95;2.40;;;11.90;99.90;;;;;;4922930;29;20036;-94
2024/04/06 03:19:15;;;;;;;14.73;3.10;;;11.90;99.90;;;;;;4923219;29;20038;-94
2024/04/06 03:21:41;;;;;;;20.23;3.30;;;11.90;99.90;;;;;;4922024;29;20087;-94
2024/04/06 03:24:07;;;;;;;15.10;3.42;;;11.80;99.90;;;;;;4921675;29;20036;-94
2024/04/06 03:26:33;;;;;;;16.55;3.40;;;11.80;99.90;;;;;;4922665;29;20520;-94
2024/04/06 03:28:59;;;;;;;15.45;4.30;;;11.80;99.90;;;;;;4925086;29;20032;-94
2024/04/06 03:31:25;;;;;;;12.20;3.80;;;11.80;99.90;;;;;;4925356;29;20051;-94
2024/04/06 03:33:51;;;;;;;15.38;3.60;;;11.80;99.90;;;;;;4925521;29;20037;-94
2024/04/06 03:36:16;;;;;;;13.95;3.88;;;11.80;99.90;;;;;;4925217;29;20032;-94
2024/04/06 03:38:42;;;;;;;13.88;3.90;;;11.80;99.90;;;;;;4926968;29;20035;-94
2024/04/06 03:41:08;;;;;;;19.50;4.50;;;11.80;99.90;;;;;;4926703;29;20052;-94
2024/04/06 03:43:33;;;;;;;13.38;3.15;;;11.80;99.90;;;;;;4925266;29;20508;-94
2024/04/06 03:45:59;;;;;;;14.93;3.30;;;11.80;99.90;;;;;;4926027;29;20028;-93
2024/04/06 03:48:25;;;;;;;17.63;3.72;;;11.80;99.90;;;;;;4925641;29;20755;-94
2024/04/06 03:50:51;;;;;;;19.88;3.65;;;11.80;99.90;;;;;;4927561;29;20140;-94
2024/04/06 03:53:38;;;;;;;13.98;3.80;;;11.80;99.90;;;;;;4929479;29;20122;-94
2024/04/06 03:56:04;;;;;;;22.00;3.72;;;11.80;99.90;;;;;;4930360;29;20024;-94
2024/04/06 03:58:37;;;;;;;19.55;3.67;;;11.80;99.90;;;;;;4928085;29;20066;-94
2024/04/06 04:01:03;;;;;;;12.00;3.40;;;11.80;99.90;;;;;;4929188;29;20035;-94
2024/04/06 04:03:29;;;;;;;16.05;3.20;;;11.80;99.90;;;;;;4924344;29;20031;-94
2024/04/06 04:05:55;;;;;;;15.32;3.60;;;11.80;99.90;;;;;;4925844;29;20028;-94
2024/04/06 04:08:21;;;;;;;16.67;3.53;;;11.80;99.90;;;;;;4927070;29;20063;-93
2024/04/06 04:10:47;;;;;;;15.13;3.15;;;11.80;99.90;;;;;;4928784;29;20066;-95
2024/04/06 04:13:13;;;;;;;14.68;3.13;;;11.80;99.90;;;;;;4937173;29;20036;-94
2024/04/06 04:15:40;;;;;;;13.73;3.65;;;11.80;99.90;;;;;;4927022;29;20394;-94
2024/04/06 04:18:07;;;;;;;12.15;2.50;;;11.80;99.90;;;;;;4926074;29;20032;-95
2024/04/06 04:20:33;;;;;;;21.15;3.33;;;11.80;99.90;;;;;;4926598;29;20023;-93
2024/04/06 04:23:02;;;;;;;16.40;2.92;;;11.80;99.90;;;;;;4925942;29;20143;-94
2024/04/06 04:25:31;;;;;;;13.25;2.50;;;11.80;99.90;;;;;;4926351;29;20031;-94
2024/04/06 04:28:00;;;;;;;10.98;2.58;;;11.80;99.90;;;;;;4929774;29;20044;-94
2024/04/06 04:30:27;;;;;;;11.50;2.85;;;11.90;99.90;;;;;;4931707;29;20032;-94
2024/04/06 04:32:53;;;;;;;14.30;2.70;;;11.80;99.90;;;;;;4932241;29;20105;-94
2024/04/06 04:35:20;;;;;;;11.63;2.65;;;11.90;99.90;;;;;;4927802;29;20028;-94
2024/04/06 04:37:46;;;;;;;14.95;3.00;;;11.90;99.90;;;;;;4926486;29;20028;-94
2024/04/06 04:40:12;;;;;;;12.05;2.60;;;11.90;99.90;;;;;;4927751;29;20039;-94
2024/04/06 04:42:40;;;;;;;10.85;2.25;;;11.90;99.90;;;;;;4925285;29;20115;-94
2024/04/06 04:45:15;;;;;;;9.55;2.40;;;11.90;99.90;;;;;;4922775;29;20055;-94
2024/04/06 04:47:41;;;;;;;20.65;2.30;;;11.90;99.90;;;;;;4924208;29;20046;-93
2024/04/06 04:50:09;;;;;;;9.13;2.63;;;11.90;99.90;;;;;;4925141;29;20028;-93
2024/04/06 04:52:35;;;;;;;10.32;2.03;;;11.90;99.90;;;;;;4925159;29;20034;-94
2024/04/06 04:55:07;;;;;;;12.85;2.70;;;11.90;99.90;;;;;;4933468;29;20036;-94
2024/04/06 04:57:32;;;;;;;11.15;2.20;;;11.90;99.90;;;;;;4934474;29;20517;-94
2024/04/06 04:59:58;;;;;;;12.52;2.35;;;11.90;99.90;;;;;;4934009;29;20028;-94
2024/04/06 05:02:24;;;;;;;7.72;2.22;;;12.00;99.90;;;;;;4930900;29;20035;-93
2024/04/06 05:04:50;;;;;;;12.95;2.30;;;12.00;99.90;;;;;;4931037;29;20382;-94
2024/04/06 05:07:18;;;;;;;11.65;2.70;;;12.00;99.90;;;;;;4926356;29;20156;-94
2024/04/06 05:09:45;;;;;;;8.95;2.13;;;12.00;99.90;;;;;;4925513;29;20118;-94
2024/04/06 05:12:11;;;;;;;8.50;2.20;;;12.00;99.90;;;;;;4931696;29;20031;-94
2024/04/06 05:14:37;;;;;;;15.55;3.65;;;12.00;99.90;;;;;;4915399;29;20031;-94
2024/04/06 05:17:02;;;;;;;6.97;2.00;;;12.00;99.90;;;;;;4951088;29;20028;-96
2024/04/06 05:19:30;;;;;;;10.30;1.98;;;12.10;99.90;;;;;;4933920;29;20031;-94
2024/04/06 05:21:58;;;;;;;6.85;1.95;;;12.10;99.90;;;;;;4930522;29;20028;-95
2024/04/06 05:24:24;;;;;;;9.63;2.25;;;12.10;99.90;;;;;;4924283;29;20024;-95
2024/04/06 05:26:53;;;;;;;8.82;1.90;;;12.10;99.90;;;;;;4921249;29;20067;-94
2024/04/06 05:29:19;;;;;;;9.93;1.98;;;12.10;99.90;;;;;;4923780;29;20023;-95
2024/04/06 05:31:45;;;;;;;7.38;2.13;;;12.20;99.90;;;;;;4924148;29;20028;-95
2024/04/06 05:34:11;;;;;;;9.23;2.05;;;12.20;99.90;;;;;;4923967;29;20036;-95
2024/04/06 05:36:36;;;;;;;6.80;1.80;;;12.20;99.90;;;;;;4925276;29;20035;-94
2024/04/06 05:39:04;;;;;;;6.55;1.92;;;12.20;99.90;;;;;;4926068;29;20494;-94
2024/04/06 05:41:30;;;;;;;6.20;1.63;;;12.20;99.90;;;;;;4930221;29;20051;-94
2024/04/06 05:43:56;;;;;;;7.22;1.88;;;12.20;99.90;;;;;;4935652;29;20103;-95
2024/04/06 05:46:22;;;;;;;5.15;1.60;;;12.20;99.90;;;;;;4935912;29;20058;-95
2024/04/06 05:48:47;;;;;;;8.25;1.77;;;12.20;99.90;;;;;;4927150;29;20032;-95
2024/04/06 05:51:13;;;;;;;6.20;1.90;;;12.20;99.90;;;;;;4923294;29;20031;-95
2024/04/06 05:53:42;;;;;;;9.85;3.20;;;12.20;99.90;;;;;;4925113;29;20023;-95
2024/04/06 05:56:08;;;;;;;4.93;1.42;;;12.20;99.90;;;;;;4925355;29;20032;-95
2024/04/06 05:58:35;;;;;;;5.95;1.50;;;12.20;99.90;;;;;;4924483;29;20031;-95
2024/04/06 06:01:01;;;;;;;5.93;1.75;;;12.20;99.90;;;;;;4925195;29;20036;-95
2024/04/06 06:03:26;;;;;;;8.68;2.15;;;12.30;99.90;;;;;;4924795;29;20028;-95
2024/04/06 06:05:52;;;;;;;8.52;2.00;;;12.30;99.90;;;;;;4923421;29;20051;-94
2024/04/06 06:08:18;;;;;;;8.95;1.90;;;12.30;99.90;;;;;;4924549;29;20048;-95
2024/04/06 06:11:46;;;;;;;10.75;2.40;;;12.30;99.90;;;;;;4928612;29;20058;-95
2024/04/06 06:14:12;;;;;;;6.25;2.25;;;12.40;99.90;;;;;;4817928;29;20046;-95
2024/04/06 06:16:38;;;;;;;5.70;1.85;;;12.40;99.90;;;;;;4830887;29;20126;-95
2024/04/06 06:19:03;;;;;;;9.10;2.30;;;12.40;99.90;;;;;;4830780;29;20038;-95
2024/04/06 06:21:30;;;;;;;3.70;1.80;;;12.50;99.90;;;;;;4828441;29;20030;-94
2024/04/06 06:23:56;;;;;;;6.32;2.33;;;12.50;99.90;;;;;;4827931;29;20091;-96
2024/04/06 06:26:22;;;;;;;5.22;2.08;;;12.50;99.90;;;;;;4828227;29;20046;-94
2024/04/06 06:28:47;;;;;;;5.65;1.63;;;12.60;99.90;;;;;;4828662;29;20129;-94
2024/04/06 06:31:42;;;;;;;7.82;1.95;;;12.60;99.90;;;;;;4823512;29;20042;-95
2024/04/06 06:34:08;;;;;;;10.27;2.88;;;12.60;99.90;;;;;;4823079;29;20094;-95
2024/04/06 06:36:34;;;;;;;6.65;1.83;;;12.60;99.90;;;;;;4834680;29;20029;-95
2024/04/06 06:39:06;;;;;;;10.38;2.15;;;12.70;99.90;;;;;;4850118;29;20038;-95
2024/04/06 06:41:33;;;;;;;8.45;2.05;;;12.70;99.90;;;;;;4847905;29;20058;-95
2024/04/06 06:43:59;;;;;;;5.25;2.15;;;12.70;99.90;;;;;;4837505;29;20038;-95
2024/04/06 06:46:32;;;;;;;5.55;1.63;;;12.80;99.90;;;;;;4831261;29;20141;-94
2024/04/06 06:48:58;;;;;;;7.05;2.22;;;12.70;99.90;;;;;;4830076;29;20162;-93
2024/04/06 06:51:25;;;;;;;7.13;1.95;;;12.70;99.90;;;;;;4888832;29;20036;-93
2024/04/06 06:53:51;;;;;;;4.75;1.92;;;12.70;99.90;;;;;;4921452;29;20047;-95
2024/04/06 06:56:19;;;;;;;7.30;1.73;;;12.70;99.90;;;;;;4910071;29;20033;-94
2024/04/06 06:58:45;;;;;;;10.32;1.88;;;12.80;99.90;;;;;;4923806;29;20023;-94
2024/04/06 07:01:11;;;;;;;7.53;2.13;;;12.80;99.90;;;;;;4925071;29;20047;-93
2024/04/06 07:03:36;;;;;;;5.03;1.90;;;12.80;99.90;;;;;;4929150;29;20038;-93
2024/04/06 07:06:03;;;;;;;10.18;2.13;;;12.80;99.90;;;;;;4934279;29;20090;-93
2024/04/06 07:08:32;;;;;;;6.35;1.92;;;12.90;99.90;;;;;;4933640;29;20036;-94
2024/04/06 07:11:02;;;;;;;7.55;2.00;;;12.80;99.90;;;;;;4931907;29;20047;-95
2024/04/06 07:13:28;;;;;;;9.27;2.15;;;12.90;99.90;;;;;;4924925;29;20024;-93
2024/04/06 07:16:10;;;;;;;4.13;1.80;;;13.00;99.90;;;;;;4931037;29;20071;-95
2024/04/06 07:18:41;;;;;;;9.30;1.90;;;13.00;99.90;;;;;;4926807;29;20028;-95
2024/04/06 07:21:18;;;;;;;7.65;2.20;;;13.00;99.90;;;;;;4924906;29;20038;-95
2024/04/06 07:23:44;;;;;;;7.40;2.05;;;13.10;99.90;;;;;;4924971;29;20595;-93
2024/04/06 07:26:13;;;;;;;8.50;2.42;;;13.20;99.90;;;;;;4922976;29;20031;-94
2024/04/06 07:28:39;;;;;;;4.65;2.45;;;13.30;99.90;;;;;;4907030;29;20036;-94
2024/04/06 07:31:15;;;;;;;7.93;2.35;;;13.40;99.90;;;;;;4924666;29;20028;-95
2024/04/06 07:33:42;;;;;;;8.02;2.13;;;13.50;99.90;;;;;;4927792;29;20043;-94
2024/04/06 07:36:14;;;;;;;6.25;2.30;;;13.60;99.90;;;;;;4922594;29;20023;-94
2024/04/06 07:38:44;;;;;;;10.50;2.17;;;13.70;99.90;;;;;;4938956;29;20027;-94
2024/04/06 07:41:15;;;;;;;9.25;2.08;;;13.90;99.90;;;;;;4921229;29;20048;-94
2024/04/06 07:43:48;;;;;;;7.13;2.45;;;14.00;99.90;;;;;;4937886;29;20032;-94
2024/04/06 07:46:20;;;;;;;9.15;2.40;;;14.10;99.90;;;;;;4907929;29;20132;-95
2024/04/06 07:48:50;;;;;;;6.53;2.20;;;14.10;99.90;;;;;;4925545;29;20036;-93
2024/04/06 07:51:18;;;;;;;7.13;2.53;;;14.20;99.90;;;;;;4933809;29;20070;-94
2024/04/06 07:53:48;;;;;;;5.53;1.75;;;14.20;99.90;;;;;;4915656;29;20043;-94
2024/04/06 07:56:25;;;;;;;4.55;1.95;;;14.30;99.90;;;;;;4916668;29;20036;-94
2024/04/06 07:59:20;;;;;;;4.82;2.08;;;14.40;99.90;;;;;;4938180;29;20118;-94
2024/04/06 08:01:49;;;;;;;4.95;1.85;;;14.50;99.90;;;;;;4921802;29;20032;-94
2024/04/06 08:04:20;;;;;;;8.65;2.15;;;14.50;99.90;;;;;;4910605;29;20032;-94
2024/04/06 08:06:46;;;;;;;8.40;3.03;;;14.60;99.90;;;;;;4924153;29;20035;-94
2024/04/06 08:09:52;;;;;;;;;;;;;;;;;;;;;
2024/04/06 08:12:22;;;;;;;7.18;2.30;;;14.60;99.90;;;;;;4920161;29;20046;-95
2024/04/06 08:14:53;;;;;;;9.80;2.47;;;14.70;99.90;;;;;;4909099;29;20043;-94
2024/04/06 08:17:58;;;;;;;8.73;2.75;;;14.70;99.90;;;;;;4915429;29;20036;-93
2024/04/06 08:20:55;;;;;;;12.40;3.17;;;14.80;99.90;;;;;;4921505;29;20534;-93
2024/04/06 08:23:35;;;;;;;6.75;2.50;;;14.80;99.90;;;;;;4923718;29;20082;-95
2024/04/06 08:26:06;;;;;;;12.93;2.70;;;14.90;99.90;;;;;;4922942;29;20035;-94
2024/04/06 08:28:33;;;;;;;8.35;2.40;;;14.90;99.90;;;;;;4922450;29;20043;-94
2024/04/06 08:31:01;;;;;;;6.22;2.05;;;14.90;99.90;;;;;;4907723;29;20028;-94
2024/04/06 08:33:29;;;;;;;7.93;2.20;;;14.90;99.90;;;;;;4922890;29;20110;-94
2024/04/06 08:36:12;;;;;;;8.38;2.60;;;15.00;99.90;;;;;;4939946;29;20020;-95
2024/04/06 08:39:08;;;;;;;4.75;1.92;;;15.00;99.90;;;;;;4939336;29;20083;-95
2024/04/06 08:41:45;;;;;;;4.75;1.88;;;15.10;99.90;;;;;;4922699;29;20040;-94
2024/04/06 08:44:34;;;;;;;6.63;3.45;;;15.20;99.90;;;;;;4942339;29;20042;-95
2024/04/06 08:47:22;;;;;;;7.22;2.40;;;15.20;99.90;;;;;;4924317;29;20123;-96
2024/04/06 08:49:49;;;;;;;11.00;3.05;;;15.20;99.90;;;;;;4915768;29;20059;-94
2024/04/06 08:52:19;;;;;;;5.32;2.15;;;15.20;99.90;;;;;;4923402;29;20566;-94
2024/04/06 08:54:52;;;;;;;;;;;15.30;99.90;;;;;;4941847;29;20432;-96
2024/04/06 08:57:26;;;;;;;9.65;2.97;;;15.30;99.90;;;;;;4909341;29;20456;-96
2024/04/06 08:59:58;;;;;;;9.77;2.70;;;15.40;99.90;;;;;;4922916;29;20035;-95
2024/04/06 09:02:32;;;;;;;8.88;2.42;;;15.50;99.90;;;;;;4923430;29;20031;-94
2024/04/06 09:05:04;;;;;;;8.65;2.53;;;15.60;99.90;;;;;;4924454;29;20054;-94
2024/04/06 09:07:30;;;;;;;12.93;2.78;;;15.60;99.90;;;;;;4925132;29;20051;-95
2024/04/06 09:10:05;;;;;;;4.07;2.10;;;15.70;99.90;;;;;;4939802;29;20162;-96
2024/04/06 09:12:31;;;;;;;6.35;2.72;;;15.70;99.90;;;;;;4895576;29;20128;-94
2024/04/06 09:15:23;;;;;;;5.85;1.95;;;15.70;99.90;;;;;;4941911;29;20051;-96
2024/04/06 09:17:59;;;;;;;9.45;2.95;;;15.70;99.90;;;;;;4913041;29;20053;-95
2024/04/06 09:20:27;;;;;;;5.18;2.58;;;15.70;99.90;;;;;;4924262;29;20117;-95
2024/04/06 09:23:06;;;;;;;10.55;2.65;;;15.60;99.90;;;;;;4931929;29;20126;-93
2024/04/06 09:25:47;;;;;;;7.15;2.17;;;15.60;99.90;;;;;;4925406;29;20036;-94
2024/04/06 09:28:21;;;;;;;7.05;1.92;;;15.60;99.90;;;;;;4918320;29;20107;-95
2024/04/06 09:30:49;;;;;;;9.43;2.90;;;15.60;99.90;;;;;;4932570;29;20035;-95
2024/04/06 09:33:30;;;;;;;11.18;3.63;;;15.70;99.90;;;;;;4945617;29;20039;-95
2024/04/06 09:35:56;;;;;;;9.10;2.60;;;15.60;99.90;;;;;;4910712;29;20074;-96
2024/04/06 09:38:35;;;;;;;6.78;1.95;;;15.70;99.90;;;;;;4923535;29;20027;-95
2024/04/06 09:41:09;;;;;;;13.07;2.33;;;15.70;99.90;;;;;;4923495;29;20123;-93
2024/04/06 09:43:37;;;;;;;9.98;2.08;;;15.70;99.90;;;;;;4908467;29;20111;-94
2024/04/06 09:46:12;;;;;;;9.88;2.85;;;15.80;99.90;;;;;;4919098;29;20099;-93
2024/04/06 09:48:41;;;;;;;8.13;2.50;;;15.80;99.90;;;;;;4931373;29;20040;-95
2024/04/06 09:51:12;;;;;;;14.05;3.20;;;15.80;99.90;;;;;;4931848;29;20059;-94
2024/04/06 09:53:59;;;;;;;10.40;3.22;;;15.80;99.90;;;;;;4930406;29;20027;-93
2024/04/06 09:56:26;;;;;;;11.43;2.70;;;15.80;99.90;;;;;;4909919;29;20028;-92
2024/04/06 09:59:28;;;;;;;9.65;3.08;;;15.70;99.90;;;;;;4920834;29;20059;-92
2024/04/06 10:02:03;;;;;;;8.32;2.63;;;15.80;99.90;;;;;;4912109;29;20044;-92
2024/04/06 10:05:01;;;;;;;11.50;2.80;;;15.80;99.90;;;;;;4943476;29;20020;-94
2024/04/06 10:07:32;;;;;;;11.77;2.42;;;15.80;99.90;;;;;;4922446;29;20134;-93
2024/04/06 10:10:08;;;;;;;11.82;3.10;;;15.80;99.90;;;;;;4922024;29;20024;-95
2024/04/06 10:12:47;;;;;;;15.85;2.70;;;15.80;99.90;;;;;;4907383;29;20028;-93
2024/04/06 10:15:25;;;;;;;11.05;2.28;;;15.80;99.90;;;;;;4920492;29;20625;-93
2024/04/06 10:17:54;;;;;;;6.38;1.90;;;15.90;99.90;;;;;;4923826;29;20091;-94
2024/04/06 10:20:31;;;;;;;10.75;2.63;;;15.90;99.90;;;;;;4928165;29;20569;-94
2024/04/06 10:23:07;;;;;;;8.90;1.98;;;16.00;99.90;;;;;;4924499;29;20036;-94
2024/04/06 10:25:36;;;;;;;11.45;2.28;;;16.00;99.90;;;;;;4932502;29;20016;-92
2024/04/06 10:28:23;;;;;;;13.52;2.50;;;16.10;99.90;;;;;;4930186;29;20103;-93
2024/04/06 10:31:02;;;;;;;10.82;2.47;;;16.10;99.90;;;;;;4932522;29;20539;-93
2024/04/06 10:33:30;;;;;;;10.43;2.67;;;16.10;99.90;;;;;;4922316;29;20059;-95
2024/04/06 10:36:02;;;;;;;6.22;2.95;;;16.20;99.90;;;;;;4922667;29;20111;-93
2024/04/06 10:38:28;;;;;;;14.90;2.45;;;16.20;99.90;;;;;;4924841;29;20405;-94
2024/04/06 10:40:54;;;;;;;9.55;2.22;;;16.30;99.90;;;;;;4921977;29;20127;-94
2024/04/06 10:43:20;;;;;;;7.82;1.70;;;16.30;99.90;;;;;;4922769;29;20063;-93
2024/04/06 10:45:52;;;;;;;5.53;1.98;;;16.40;99.90;;;;;;4948585;29;20028;-92
2024/04/06 10:48:24;;;;;;;10.93;2.47;;;16.50;99.90;;;;;;4949099;29;20031;-92
2024/04/06 10:50:51;;;;;;;10.27;2.10;;;16.50;99.90;;;;;;4929795;29;20034;-93
2024/04/06 10:53:23;;;;;;;10.27;2.10;;;16.60;99.90;;;;;;4949196;29;20087;-94
2024/04/06 10:55:49;;;;;;;9.02;2.17;;;16.60;99.90;;;;;;4931751;29;20016;-93
2024/04/06 10:59:00;;;;;;;10.20;1.85;;;16.60;99.90;;;;;;4947001;29;20020;-94
2024/04/06 11:01:39;;;;;;;9.57;2.08;;;16.60;99.90;;;;;;4939058;29;20710;-94
2024/04/06 11:04:11;;;;;;;8.30;1.90;;;16.60;99.90;;;;;;4912676;29;20048;-94
2024/04/06 11:06:39;;;;;;;10.25;2.33;;;16.60;99.90;;;;;;4927544;29;20051;-93
2024/04/06 11:18:03;;;;;;;12.00;2.20;;;16.40;99.90;;;;;;4976551;23;20044;-95
2024/04/06 11:20:37;;;;;;;8.93;2.35;;;16.40;99.90;;;;;;4925509;29;20115;-94
2024/04/06 11:23:18;;;;;;;13.68;2.17;;;16.40;99.90;;;;;;4920978;29;20019;-95
2024/04/06 11:26:16;;;;;;;7.70;1.75;;;16.40;99.90;;;;;;4900232;29;20036;-95
2024/04/06 11:28:44;;;;;;;12.55;2.50;;;16.50;99.90;;;;;;4934200;29;20074;-93
2024/04/06 11:31:21;;;;;;;6.78;1.50;;;16.50;99.90;;;;;;4925921;29;20039;-95
2024/04/06 11:33:56;;;;;;;15.25;2.03;;;16.50;99.90;;;;;;4936904;29;20054;-93
2024/04/06 11:36:38;;;;;;;9.52;1.73;;;16.50;99.90;;;;;;4958062;29;20512;-94
2024/04/06 11:39:09;;;;;;;11.10;1.58;;;16.50;99.90;;;;;;4940194;29;20047;-93
2024/04/06 11:41:41;;;;;;;3.97;1.20;;;16.50;99.90;;;;;;4940380;29;20031;-93
2024/04/06 11:44:08;;;;;;;7.20;2.08;;;16.50;99.90;;;;;;4947879;29;20110;-94
2024/04/06 11:46:44;;;;;;;11.30;1.65;;;16.40;99.90;;;;;;4947767;28;20035;-94
2024/04/06 11:49:15;;;;;;;13.63;2.67;;;16.40;99.90;;;;;;4949635;29;20031;-94
2024/04/06 11:52:04;;;;;;;6.93;1.67;;;16.40;99.90;;;;;;4966270;29;20560;-95
2024/04/06 11:55:03;;;;;;;8.38;2.33;;;16.40;99.90;;;;;;4959467;28;20015;-95
2024/04/06 11:57:54;;;;;;;10.98;1.70;;;16.70;99.90;;;;;;4930015;29;20092;-95
2024/04/06 12:00:24;;;;;;;10.40;2.38;;;17.10;99.90;;;;;;4925080;29;20088;-95
2024/04/06 12:03:06;;;;;;;6.97;1.63;;;17.40;99.90;;;;;;4936654;29;20052;-95
2024/04/06 12:05:40;;;;;;;5.25;1.95;;;17.70;99.90;;;;;;4928015;29;20071;-93
2024/04/06 12:08:11;;;;;;;12.32;2.40;;;17.80;99.90;;;;;;4907968;29;20040;-94
2024/04/06 12:10:41;;;;;;;7.45;2.38;;;17.90;99.90;;;;;;4893771;29;20483;-93
2024/04/06 12:13:10;;;;;;;12.73;1.63;;;18.10;99.60;;;;;;4892090;29;20103;-94
2024/04/06 12:15:48;;;;;;;9.38;2.45;;;18.30;99.00;;;;;;4924582;29;20036;-93
2024/04/06 12:18:15;;;;;;;12.35;1.70;;;18.50;98.80;;;;;;4915556;29;20052;-93
2024/04/06 12:20:41;;;;;;;7.85;1.73;;;18.80;96.90;;;;;;4925547;29;20043;-96
2024/04/06 12:23:07;;;;;;;7.63;2.20;;;18.90;95.80;;;;;;4907396;29;20036;-95
2024/04/06 12:25:34;;;;;;;10.07;2.28;;;19.00;94.00;;;;;;4904741;29;20036;-95
2024/04/06 12:28:00;;;;;;;6.40;1.50;;;18.90;92.40;;;;;;4921175;29;20075;-95
2024/04/06 12:30:29;;;;;;;6.10;1.90;;;18.90;91.30;;;;;;4912429;29;20012;-95
2024/04/06 12:33:10;;;;;;;3.38;1.08;;;19.10;91.20;;;;;;4899069;29;20099;-94
2024/04/06 12:35:36;;;;;;;11.63;2.00;;;19.20;89.70;;;;;;4959436;29;20114;-93
2024/04/06 12:38:02;;;;;;;9.30;2.22;;;19.00;87.90;;;;;;4949388;29;20063;-93
2024/04/06 12:40:28;;;;;;;11.68;2.03;;;18.80;88.50;;;;;;4950109;29;20019;-95
2024/04/06 12:42:56;;;;;;;10.10;1.33;;;18.60;88.30;;;;;;4947877;29;20137;-96
2024/04/06 12:45:27;;;;;;;12.77;2.00;;;18.60;89.10;;;;;;4962556;29;20032;-95
2024/04/06 12:47:55;;;;;;;9.18;1.98;;;18.70;88.90;;;;;;4965679;29;20058;-95
2024/04/06 12:50:24;;;;;;;10.00;2.00;;;18.70;87.70;;;;;;4950152;29;20020;-94
2024/04/06 12:52:52;;;;;;;7.60;1.90;;;18.80;88.60;;;;;;4951562;29;20023;-95
2024/04/06 12:55:18;;;;;;;8.20;1.95;;;18.90;88.00;;;;;;4951657;29;20061;-95
2024/04/06 12:57:44;;;;;;;3.00;1.10;;;18.70;84.30;;;;;;4955122;29;20027;-95
2024/04/06 13:00:13;;;;;;;8.15;1.40;;;18.70;83.80;;;;;;4958723;29;20108;-94
2024/04/06 13:02:40;;;;;;;8.87;1.90;;;18.60;83.60;;;;;;4960994;29;20019;-96
2024/04/06 13:05:06;;;;;;;6.20;1.52;;;18.70;84.50;;;;;;4960427;29;20055;-95
2024/04/06 13:07:43;;;;;;;5.38;1.38;;;18.90;85.10;;;;;;4955713;29;20042;-94